Terminal Aerodrome Forecast
Issued by NWS Upton, NY

Home | Current Version | Previous Version | Text Only | Print | Product List | Glossary On
Versions: 1 2 3 4 5 6 7 8 9 10 11 12 13 14 15 16 17 18 19 20 21 22 23 24 25 26 27
000
FTUS41 KOKX 010800 AAA
TAFEWR
TAF AMD
KEWR 010832Z 0109/0212 25007KT P6SM FEW035 BKN250
     FM011500 27007KT P6SM SCT050 BKN100
     FM011800 25006KT P6SM FEW040 OVC060
     FM020000 12005KT 2SM -SN OVC015
     FM020300 09007KT 1 1/2SM -SN BR OVC005
     FM021000 06013KT 2SM -FZRASNPL BR OVC009=

USA.gov is the U.S. government's official web portal to all federal, state and local government web resources and services.